GCLP/LPA METAR and TAF weather

Enter ICAO airport designator
Station Type Date Time Source
GCLP METAR 2019/04/24 22:00 UTC NOAA

GCLP 242200Z 34005KT 9999 FEW030 18/12 Q1020 NOSIG


Station Type Date Time Source
GCLP Decoded METAR 2019/04/24 22:00 UTC NOAA

Gran Canaria - Canary Islands, Spain (GCLP) 27-56N 015-23W 47M
Apr 24, 2019 - 06:00 PM EDT / 2019.04.24 2200 UTC
Wind: from the NNW (340 degrees) at 6 MPH (5 KT):0
Visibility: greater than 7 mile(s):0
Sky conditions: mostly clear
Temperature: 64 F (18 C)
Dew Point: 53 F (12 C)
Relative Humidity: 67%
Pressure (altimeter): 30.12 in. Hg (1020 hPa)
ob: GCLP 242200Z 34005KT 9999 FEW030 18/12 Q1020 NOSIG
cycle: 22

Station Type Date Time Source
GCLP TAF 2019/04/24 21:40 UTC NOAA

TAF GCLP 242000Z 2421/2521 35012KT 9999 SCT030 TX22/2514Z TN16/2505Z
BECMG 2508/2510 05020KT
TEMPO 2512/2518 03020G30KT

Example: see airport list